Impacts TAF Board INFO
FOR SITUATIONAL AWARENESS. NOT TO BE USED FOR FLIGHT PLANNING PURPOSES.
IDs:

KPNS - Pensacola Intl, FL, US

Issued at 1120 UTC 24 Feb 2018
Updated at 1148 UTC 24 Feb 2018
Potential Impact None Slight Moderate High
Time<<25/00Z 25/01Z 25/02Z 25/03Z 25/04Z 25/05Z 25/06Z 25/07Z 25/08Z 25/09Z 25/10Z 25/11Z 25/12Z>>
Type PRVL PRVL PRVL PRVL PRVL PRVL PRVL PRVL PRVL PRVL PRVL PRVL
VIS >6 >6 >6 >6 >6 >6 >6 >6 3 3 3 3
CIG 30 30 15 15 15 15 15 15 9 9 9 9
Cover BKN BKN BKN BKN BKN BKN BKN BKN OVC OVC OVC OVC
FltCat MVFR MVFR MVFR MVFR MVFR MVFR MVFR MVFR IFR IFR IFR IFR
WX -- -- -- -- -- -- -- -- BR VCSH BR VCSH BR VCSH BR VCSH
WDir 170 170 180 180 180 180 180 180 180 180 180 180
WSpd 13 13 7 7 7 7 7 7 6 6 6 6
WGst -- -- -- -- -- -- -- -- -- -- -- --

Raw TAF
KPNS 241120Z 2412/2512 13007KT P6SM SKC
  FM241500 16009KT P6SM OVC015
  FM241800 17013KT P6SM BKN030
  FM250200 18007KT P6SM BKN015
  FM250800 18006KT 3SM BR VCSH OVC009


METAR Board
Radar Display
Forecast Discussion

FOR SITUATIONAL AWARENESS. NOT TO BE USED FOR FLIGHT PLANNING PURPOSES.